Time;durP1;ratioP1;P1;durP2;ratioP2;P2;SDS_P1;SDS_P2;PMS_P1;PMS_P2;Temp;Humidity;BMP_temperature;BMP_pressure;BME280_temperature;BME280_humidity;BME280_pressure;Samples;Min_cycle;Max_cycle;Signal;HPM_P1;HPM_P2
2022/04/10 00:00:17;;;;;;;25.90;9.05;;;;;;;;;;4991529;28;20682;-65
2022/04/10 00:02:44;;;;;;;25.08;9.20;;;;;;;;;;4989773;28;20140;-64
2022/04/10 00:05:09;;;;;;;27.08;9.85;;;;;;;;;;4991671;28;20348;-64
2022/04/10 00:07:35;;;;;;;27.55;10.35;;;;;;;;;;4973779;28;20353;-64
2022/04/10 00:10:00;;;;;;;25.33;9.45;;;;;;;;;;4992071;28;20401;-64
2022/04/10 00:12:26;;;;;;;21.48;9.40;;;;;;;;;;4991777;28;20347;-64
2022/04/10 00:14:51;;;;;;;25.25;9.90;;;;;;;;;;4993315;28;20451;-64
2022/04/10 00:17:17;;;;;;;21.65;9.57;;;;;;;;;;4973559;28;20129;-64
2022/04/10 00:19:43;;;;;;;25.92;10.57;;;;;;;;;;4991303;28;20112;-64
2022/04/10 00:22:09;;;;;;;21.45;8.85;;;;;;;;;;4992478;28;20435;-64
2022/04/10 00:24:34;;;;;;;23.15;9.00;;;;;;;;;;4990734;28;20432;-64
2022/04/10 00:26:59;;;;;;;22.08;9.05;;;;;;;;;;4991108;28;20085;-64
2022/04/10 00:29:25;;;;;;;20.75;9.88;;;;;;;;;;4991055;28;20502;-64
2022/04/10 00:31:51;;;;;;;25.02;10.13;;;;;;;;;;4991112;28;20406;-64
2022/04/10 00:34:16;;;;;;;20.50;10.13;;;;;;;;;;4991619;28;20373;-64
2022/04/10 00:36:41;;;;;;;20.40;9.30;;;;;;;;;;4991026;28;20388;-64
2022/04/10 00:39:07;;;;;;;21.15;9.85;;;;;;;;;;4990977;28;20435;-64
2022/04/10 00:41:33;;;;;;;23.85;9.68;;;;;;;;;;4990940;28;20144;-64
2022/04/10 00:44:08;;;;;;;20.05;8.43;;;;;;;;;;4973103;28;20332;-64
2022/04/10 00:46:34;;;;;;;22.73;9.90;;;;;;;;;;4991721;28;20349;-64
2022/04/10 00:49:00;;;;;;;22.40;9.40;;;;;;;;;;4990664;28;20025;-64
2022/04/10 00:51:43;;;;;;;26.35;9.93;;;;;;;;;;4990886;28;20436;-65
2022/04/10 00:54:12;;;;;;;20.02;8.68;;;;;;;;;;4990941;28;20420;-64
2022/04/10 00:56:38;;;;;;;23.42;9.35;;;;;;;;;;4990361;28;20418;-65
2022/04/10 00:59:04;;;;;;;17.67;8.77;;;;;;;;;;4990390;28;20413;-64
2022/04/10 01:01:29;;;;;;;24.75;9.23;;;;;;;;;;4969253;28;20314;-64
2022/04/10 01:03:55;;;;;;;20.58;8.75;;;;;;;;;;4952240;28;20507;-64
2022/04/10 01:06:22;;;;;;;20.88;8.77;;;;;;;;;;4951634;28;20524;-64
2022/04/10 01:08:48;;;;;;;19.92;8.80;;;;;;;;;;4951310;28;20461;-64
2022/04/10 01:11:13;;;;;;;23.60;8.65;;;;;;;;;;4933358;28;20435;-64
2022/04/10 01:13:39;;;;;;;20.27;9.23;;;;;;;;;;4951683;28;20026;-64
2022/04/10 01:16:04;;;;;;;22.05;8.80;;;;;;;;;;4950721;28;20034;-64
2022/04/10 01:18:31;;;;;;;19.30;8.50;;;;;;;;;;4951104;28;20404;-64
2022/04/10 01:20:56;;;;;;;20.60;8.77;;;;;;;;;;4933351;28;20325;-64
2022/04/10 01:23:21;;;;;;;15.73;7.75;;;;;;;;;;4950518;28;20346;-64
2022/04/10 01:25:46;;;;;;;23.67;8.85;;;;;;;;;;4951477;28;20447;-65
2022/04/10 01:28:13;;;;;;;16.67;8.32;;;;;;;;;;4951624;28;20621;-64
2022/04/10 01:30:38;;;;;;;20.30;8.35;;;;;;;;;;4952527;28;20528;-64
2022/04/10 01:33:05;;;;;;;18.75;8.15;;;;;;;;;;4950665;28;20345;-64
2022/04/10 01:35:32;;;;;;;21.90;9.18;;;;;;;;;;4950699;28;20425;-64
2022/04/10 01:37:58;;;;;;;19.17;8.68;;;;;;;;;;4950523;28;20452;-64
2022/04/10 01:40:23;;;;;;;19.85;8.82;;;;;;;;;;4944357;28;20338;-64
2022/04/10 01:42:49;;;;;;;17.92;8.40;;;;;;;;;;4966760;28;20368;-64
2022/04/10 01:45:14;;;;;;;18.05;8.70;;;;;;;;;;4970590;28;20417;-65
2022/04/10 01:47:39;;;;;;;16.40;7.88;;;;;;;;;;4970313;28;20329;-64
2022/04/10 01:50:05;;;;;;;19.30;8.30;;;;;;;;;;4969794;28;20488;-64
2022/04/10 01:52:30;;;;;;;18.52;8.35;;;;;;;;;;4969772;28;20499;-64
2022/04/10 01:54:56;;;;;;;17.75;8.35;;;;;;;;;;4970194;28;20376;-64
2022/04/10 01:57:21;;;;;;;21.73;8.07;;;;;;;;;;4969836;28;20443;-64
2022/04/10 01:59:46;;;;;;;23.70;8.65;;;;;;;;;;4970167;28;20069;-64
2022/04/10 02:02:12;;;;;;;19.95;7.60;;;;;;;;;;4969552;28;20409;-64
2022/04/10 02:04:37;;;;;;;17.52;7.63;;;;;;;;;;4969216;28;20455;-64
2022/04/10 02:07:02;;;;;;;21.45;8.65;;;;;;;;;;4969701;28;20030;-64
2022/04/10 02:09:28;;;;;;;21.25;7.82;;;;;;;;;;4969685;28;20033;-64
2022/04/10 02:11:53;;;;;;;25.70;9.38;;;;;;;;;;4969722;28;20033;-64
2022/04/10 02:14:18;;;;;;;19.90;7.97;;;;;;;;;;4969605;28;20451;-65
2022/04/10 02:16:44;;;;;;;20.20;8.27;;;;;;;;;;4969926;28;20320;-64
2022/04/10 02:19:09;;;;;;;16.17;7.88;;;;;;;;;;4969981;28;20037;-64
2022/04/10 02:21:35;;;;;;;21.85;9.35;;;;;;;;;;4969151;28;20175;-64
2022/04/10 02:24:01;;;;;;;18.73;7.88;;;;;;;;;;4969352;28;20090;-64
2022/04/10 02:26:26;;;;;;;16.95;7.57;;;;;;;;;;4970341;28;20448;-64
2022/04/10 02:28:52;;;;;;;16.23;6.57;;;;;;;;;;4969326;28;20368;-64
2022/04/10 02:31:17;;;;;;;16.98;7.57;;;;;;;;;;4969281;28;20368;-64
2022/04/10 02:33:42;;;;;;;19.25;8.55;;;;;;;;;;4969259;28;20112;-64
2022/04/10 02:36:08;;;;;;;15.43;7.35;;;;;;;;;;4969591;28;20450;-64
2022/04/10 02:38:33;;;;;;;16.30;7.40;;;;;;;;;;4969347;28;20391;-64
2022/04/10 02:40:59;;;;;;;21.00;7.78;;;;;;;;;;4968455;28;20542;-64
2022/04/10 02:43:24;;;;;;;20.15;7.82;;;;;;;;;;4969269;28;20112;-64
2022/04/10 02:45:49;;;;;;;16.52;7.63;;;;;;;;;;4968889;28;20026;-64
2022/04/10 02:48:14;;;;;;;22.00;8.35;;;;;;;;;;4968937;28;20421;-64
2022/04/10 02:50:41;;;;;;;18.35;7.70;;;;;;;;;;4969024;28;20368;-64
2022/04/10 02:53:06;;;;;;;17.00;6.85;;;;;;;;;;4968868;28;20467;-64
2022/04/10 02:55:32;;;;;;;17.63;8.05;;;;;;;;;;4968852;28;20494;-64
2022/04/10 02:57:57;;;;;;;16.38;7.38;;;;;;;;;;4969034;28;20463;-64
2022/04/10 03:00:23;;;;;;;15.27;7.30;;;;;;;;;;4969346;28;20033;-64
2022/04/10 03:02:48;;;;;;;18.60;7.68;;;;;;;;;;4970385;28;20416;-64
2022/04/10 03:05:15;;;;;;;15.18;7.03;;;;;;;;;;4969313;28;20048;-64
2022/04/10 03:07:40;;;;;;;13.63;6.78;;;;;;;;;;4968752;28;20428;-64
2022/04/10 03:10:06;;;;;;;13.02;6.35;;;;;;;;;;4969099;28;20494;-65
2022/04/10 03:12:31;;;;;;;21.67;7.63;;;;;;;;;;4970396;28;20558;-64
2022/04/10 03:14:57;;;;;;;16.63;7.40;;;;;;;;;;4972663;28;20025;-64
2022/04/10 03:17:22;;;;;;;14.90;7.00;;;;;;;;;;4972899;28;20421;-65
2022/04/10 03:19:47;;;;;;;17.13;7.00;;;;;;;;;;4972361;28;20452;-64
2022/04/10 03:22:13;;;;;;;13.75;5.88;;;;;;;;;;4973000;28;20346;-65
2022/04/10 03:24:38;;;;;;;15.23;7.35;;;;;;;;;;4973369;28;20108;-64
2022/04/10 03:27:04;;;;;;;15.50;7.22;;;;;;;;;;4974321;28;20290;-64
2022/04/10 03:29:29;;;;;;;14.52;6.97;;;;;;;;;;4972879;28;20465;-64
2022/04/10 03:31:55;;;;;;;14.23;6.63;;;;;;;;;;4972999;28;20834;-64
2022/04/10 03:34:20;;;;;;;16.05;7.30;;;;;;;;;;4972256;28;20421;-64
2022/04/10 03:36:46;;;;;;;15.52;6.85;;;;;;;;;;4973220;28;20515;-64
2022/04/10 03:39:11;;;;;;;16.58;7.53;;;;;;;;;;4973782;28;20357;-64
2022/04/10 03:41:36;;;;;;;18.50;7.22;;;;;;;;;;4972064;28;20391;-64
2022/04/10 03:44:02;;;;;;;21.95;8.25;;;;;;;;;;4972642;28;20357;-64
2022/04/10 03:46:27;;;;;;;16.77;8.02;;;;;;;;;;4971879;28;20025;-64
2022/04/10 03:48:52;;;;;;;16.38;6.80;;;;;;;;;;4972178;28;20489;-64
2022/04/10 03:51:18;;;;;;;18.58;8.02;;;;;;;;;;4972967;28;20471;-64
2022/04/10 03:53:43;;;;;;;16.98;7.43;;;;;;;;;;4971920;28;20034;-64
2022/04/10 03:56:09;;;;;;;18.80;7.60;;;;;;;;;;4972201;28;20417;-64
2022/04/10 03:58:34;;;;;;;18.85;7.25;;;;;;;;;;4972488;28;20399;-64
2022/04/10 04:00:59;;;;;;;19.05;7.70;;;;;;;;;;4972524;28;20377;-64
2022/04/10 04:03:25;;;;;;;16.48;7.47;;;;;;;;;;4971665;28;20570;-64
2022/04/10 04:05:50;;;;;;;13.20;7.72;;;;;;;;;;4971953;28;20396;-64
2022/04/10 04:08:16;;;;;;;18.30;8.35;;;;;;;;;;4971813;28;20326;-65
2022/04/10 04:10:41;;;;;;;18.50;7.20;;;;;;;;;;4972007;28;20185;-64
2022/04/10 04:13:07;;;;;;;21.10;8.93;;;;;;;;;;4971868;28;20455;-64
2022/04/10 04:15:32;;;;;;;18.38;7.15;;;;;;;;;;4971580;28;20376;-64
2022/04/10 04:17:57;;;;;;;15.95;7.35;;;;;;;;;;4971567;28;20041;-64
2022/04/10 04:20:23;;;;;;;16.40;8.68;;;;;;;;;;4971342;28;20433;-64
2022/04/10 04:22:48;;;;;;;15.27;7.40;;;;;;;;;;4971488;28;20124;-64
2022/04/10 04:25:14;;;;;;;16.85;7.35;;;;;;;;;;4969816;28;20429;-65
2022/04/10 04:27:39;;;;;;;16.38;7.43;;;;;;;;;;4971478;28;20029;-64
2022/04/10 04:30:05;;;;;;;19.13;7.63;;;;;;;;;;4971412;28;20348;-64
2022/04/10 04:32:31;;;;;;;16.73;6.05;;;;;;;;;;4953910;28;20021;-64
2022/04/10 04:34:56;;;;;;;20.67;7.88;;;;;;;;;;4973069;28;20413;-65
2022/04/10 04:37:21;;;;;;;18.17;8.10;;;;;;;;;;4971099;28;20070;-65
2022/04/10 04:39:47;;;;;;;21.90;8.70;;;;;;;;;;4971825;28;20499;-64
2022/04/10 04:42:12;;;;;;;13.73;7.13;;;;;;;;;;4971230;28;20540;-64
2022/04/10 04:44:37;;;;;;;17.60;7.63;;;;;;;;;;4971277;28;20052;-64
2022/04/10 04:47:03;;;;;;;20.10;9.43;;;;;;;;;;4971185;28;20447;-64
2022/04/10 04:49:28;;;;;;;17.30;7.85;;;;;;;;;;4971021;28;20488;-64
2022/04/10 04:51:54;;;;;;;16.45;7.47;;;;;;;;;;4970774;28;20393;-64
2022/04/10 04:54:19;;;;;;;14.23;7.50;;;;;;;;;;4971273;28;20076;-64
2022/04/10 04:56:45;;;;;;;18.38;7.57;;;;;;;;;;4971009;28;20360;-64
2022/04/10 04:59:12;;;;;;;16.40;8.05;;;;;;;;;;4971183;28;20103;-64
2022/04/10 05:01:41;;;;;;;19.05;8.00;;;;;;;;;;4970692;28;20460;-64
2022/04/10 05:04:06;;;;;;;17.23;7.63;;;;;;;;;;4970853;28;20449;-64
2022/04/10 05:06:31;;;;;;;17.85;7.43;;;;;;;;;;4970656;28;20455;-64
2022/04/10 05:08:57;;;;;;;13.93;8.32;;;;;;;;;;4971617;28;20491;-64
2022/04/10 05:11:22;;;;;;;17.02;7.22;;;;;;;;;;4970806;28;20082;-65
2022/04/10 05:13:47;;;;;;;16.55;7.65;;;;;;;;;;4971561;28;20056;-64
2022/04/10 05:16:12;;;;;;;18.30;8.00;;;;;;;;;;4971084;28;20029;-64
2022/04/10 05:18:38;;;;;;;18.00;8.00;;;;;;;;;;4970314;28;20353;-64
2022/04/10 05:21:03;;;;;;;15.50;7.53;;;;;;;;;;4970863;28;20318;-64
2022/04/10 05:23:29;;;;;;;18.27;8.15;;;;;;;;;;4970744;28;20413;-64
2022/04/10 05:25:54;;;;;;;18.02;7.85;;;;;;;;;;4970893;28;20350;-64
2022/04/10 05:28:20;;;;;;;13.30;6.70;;;;;;;;;;4970651;28;20452;-64
2022/04/10 05:30:45;;;;;;;15.60;7.75;;;;;;;;;;4969886;28;20030;-64
2022/04/10 05:33:11;;;;;;;20.55;8.95;;;;;;;;;;4971926;28;20372;-64
2022/04/10 05:35:36;;;;;;;19.20;8.45;;;;;;;;;;4969760;28;20396;-63
2022/04/10 05:38:02;;;;;;;17.65;7.13;;;;;;;;;;4971071;28;20388;-64
2022/04/10 05:40:28;;;;;;;19.90;7.97;;;;;;;;;;4970941;28;20380;-64
2022/04/10 05:42:53;;;;;;;19.67;8.23;;;;;;;;;;4970146;28;20053;-64
2022/04/10 05:45:18;;;;;;;20.10;7.95;;;;;;;;;;4970857;28;20061;-64
2022/04/10 05:47:44;;;;;;;19.95;8.00;;;;;;;;;;4970133;28;20404;-64
2022/04/10 05:50:10;;;;;;;18.67;8.02;;;;;;;;;;4970718;28;20448;-64
2022/04/10 05:52:40;;;;;;;17.42;8.20;;;;;;;;;;4970294;28;20409;-63
2022/04/10 05:55:09;;;;;;;19.05;8.35;;;;;;;;;;4970036;28;20440;-64
2022/04/10 05:57:35;;;;;;;17.05;8.10;;;;;;;;;;4970202;28;20486;-63
2022/04/10 06:00:00;;;;;;;22.45;8.90;;;;;;;;;;4969882;28;20079;-64
2022/04/10 06:02:26;;;;;;;17.63;8.23;;;;;;;;;;4970118;28;20409;-64
2022/04/10 06:04:51;;;;;;;15.88;7.80;;;;;;;;;;4969651;28;20436;-64
2022/04/10 06:07:16;;;;;;;14.77;7.50;;;;;;;;;;4969537;28;20538;-63
2022/04/10 06:09:42;;;;;;;16.75;8.35;;;;;;;;;;4969691;28;20344;-64
2022/04/10 06:12:08;;;;;;;20.75;9.15;;;;;;;;;;4970846;28;20345;-63
2022/04/10 06:14:33;;;;;;;17.35;8.27;;;;;;;;;;4967905;28;20512;-64
2022/04/10 06:16:58;;;;;;;19.05;8.93;;;;;;;;;;4969356;28;20345;-63
2022/04/10 06:19:24;;;;;;;18.65;8.70;;;;;;;;;;4969903;28;20033;-64
2022/04/10 06:21:49;;;;;;;18.23;9.15;;;;;;;;;;4969055;28;20025;-63
2022/04/10 06:24:14;;;;;;;16.05;8.88;;;;;;;;;;4969928;28;20459;-63
2022/04/10 06:26:41;;;;;;;19.15;8.57;;;;;;;;;;4969508;28;20099;-64
2022/04/10 06:29:06;;;;;;;18.65;8.85;;;;;;;;;;4970249;28;20543;-63
2022/04/10 06:31:32;;;;;;;18.90;9.57;;;;;;;;;;4969323;28;20363;-64
2022/04/10 06:33:57;;;;;;;17.73;8.98;;;;;;;;;;4969481;28;20364;-64
2022/04/10 06:36:23;;;;;;;16.33;8.18;;;;;;;;;;4969725;28;20048;-64
2022/04/10 06:38:49;;;;;;;16.13;8.63;;;;;;;;;;4970429;28;20025;-64
2022/04/10 06:41:15;;;;;;;21.98;8.73;;;;;;;;;;4968832;28;20340;-64
2022/04/10 06:43:40;;;;;;;17.75;9.27;;;;;;;;;;4951347;28;20033;-64
2022/04/10 06:46:06;;;;;;;17.48;8.23;;;;;;;;;;4969271;28;21187;-64
2022/04/10 06:48:32;;;;;;;18.80;8.32;;;;;;;;;;4968295;28;20021;-64
2022/04/10 06:50:57;;;;;;;17.33;9.43;;;;;;;;;;4970067;28;20460;-64
2022/04/10 06:53:22;;;;;;;17.77;8.05;;;;;;;;;;4969323;28;20424;-64
2022/04/10 06:55:47;;;;;;;18.17;8.10;;;;;;;;;;4970542;28;20322;-65
2022/04/10 06:58:13;;;;;;;18.73;8.05;;;;;;;;;;4969639;28;20486;-64
2022/04/10 07:00:39;;;;;;;18.45;7.78;;;;;;;;;;4968892;28;20456;-64
2022/04/10 07:03:04;;;;;;;20.02;7.93;;;;;;;;;;4969939;28;20052;-64
2022/04/10 07:05:29;;;;;;;17.02;7.90;;;;;;;;;;4969602;28;20340;-65
2022/04/10 07:07:55;;;;;;;17.75;7.75;;;;;;;;;;4970538;28;20397;-64
2022/04/10 07:10:21;;;;;;;17.15;8.23;;;;;;;;;;4969679;28;20363;-65
2022/04/10 07:12:46;;;;;;;16.70;7.70;;;;;;;;;;4969475;28;20080;-65
2022/04/10 07:15:11;;;;;;;18.75;7.53;;;;;;;;;;4968703;28;20419;-65
2022/04/10 07:17:37;;;;;;;16.35;7.30;;;;;;;;;;4969090;28;20428;-64
2022/04/10 07:20:02;;;;;;;11.95;6.68;;;;;;;;;;4968764;28;20392;-65
2022/04/10 07:25:12;;;;;;;12.70;7.07;;;;;;;;;;4970695;28;20459;-65
2022/04/10 07:27:38;;;;;;;14.68;7.40;;;;;;;;;;4968905;28;20421;-64
2022/04/10 07:30:03;;;;;;;17.90;7.20;;;;;;;;;;4968790;28;20483;-65
2022/04/10 07:32:29;;;;;;;13.75;6.10;;;;;;;;;;4951035;28;20330;-64
2022/04/10 07:34:54;;;;;;;11.98;6.25;;;;;;;;;;4966549;28;20376;-65
2022/04/10 07:37:20;;;;;;;15.65;7.43;;;;;;;;;;4969054;28;20053;-64
2022/04/10 07:39:45;;;;;;;13.35;6.28;;;;;;;;;;4969058;28;20457;-65
2022/04/10 07:42:10;;;;;;;16.35;6.70;;;;;;;;;;4968930;28;20110;-65
2022/04/10 07:44:36;;;;;;;12.45;5.78;;;;;;;;;;4968853;28;20064;-64
2022/04/10 07:49:45;;;;;;;14.48;6.43;;;;;;;;;;4968616;28;20055;-65
2022/04/10 07:52:10;;;;;;;8.23;4.85;;;;;;;;;;4970257;28;20409;-65
2022/04/10 07:54:36;;;;;;;11.82;5.50;;;;;;;;;;4968941;28;20451;-64
2022/04/10 07:57:03;;;;;;;11.88;5.28;;;;;;;;;;4968822;28;20162;-65
2022/04/10 07:59:28;;;;;;;12.15;5.68;;;;;;;;;;4971287;28;20021;-64
2022/04/10 08:01:53;;;;;;;13.98;5.95;;;;;;;;;;4972022;28;20055;-65
2022/04/10 08:04:19;;;;;;;12.63;6.00;;;;;;;;;;4972149;28;20361;-65
2022/04/10 08:06:44;;;;;;;13.00;5.65;;;;;;;;;;4971586;28;20436;-65
2022/04/10 08:09:10;;;;;;;12.35;6.00;;;;;;;;;;4972064;28;20467;-64
2022/04/10 08:11:35;;;;;;;10.70;5.15;;;;;;;;;;4971733;28;20543;-65
2022/04/10 08:14:00;;;;;;;13.95;5.35;;;;;;;;;;4972338;28;20486;-65
2022/04/10 08:16:26;;;;;;;13.52;5.00;;;;;;;;;;4971633;28;20372;-65
2022/04/10 08:18:52;;;;;;;11.98;5.75;;;;;;;;;;4971866;28;20518;-64
2022/04/10 08:21:19;;;;;;;10.55;5.57;;;;;;;;;;4971523;28;20459;-65
2022/04/10 08:23:44;;;;;;;14.90;5.90;;;;;;;;;;4972285;28;20356;-65
2022/04/10 08:26:10;;;;;;;14.43;5.43;;;;;;;;;;4971494;28;20340;-65
2022/04/10 08:28:35;;;;;;;10.85;5.30;;;;;;;;;;4971533;28;20404;-65
2022/04/10 08:31:01;;;;;;;13.02;5.10;;;;;;;;;;4971729;28;20437;-65
2022/04/10 08:33:26;;;;;;;11.10;5.10;;;;;;;;;;4972659;28;20454;-65
2022/04/10 08:35:51;;;;;;;7.47;4.00;;;;;;;;;;4971574;28;20112;-65
2022/04/10 08:38:17;;;;;;;9.07;4.80;;;;;;;;;;4971429;28;20421;-65
2022/04/10 08:40:44;;;;;;;14.57;5.47;;;;;;;;;;4971336;28;20433;-66
2022/04/10 08:43:10;;;;;;;13.05;4.72;;;;;;;;;;4971815;28;20353;-65
2022/04/10 08:45:37;;;;;;;8.60;4.95;;;;;;;;;;4971175;28;20468;-65
2022/04/10 08:48:03;;;;;;;11.82;4.70;;;;;;;;;;4972517;28;20033;-65
2022/04/10 08:50:28;;;;;;;8.70;4.22;;;;;;;;;;4971246;28;20470;-65
2022/04/10 08:52:58;;;;;;;12.25;5.22;;;;;;;;;;4971531;28;20095;-65
2022/04/10 08:55:24;;;;;;;6.75;4.43;;;;;;;;;;4970729;28;20421;-65
2022/04/10 08:57:49;;;;;;;10.27;4.45;;;;;;;;;;4970938;28;20507;-65
2022/04/10 09:00:17;;;;;;;10.75;4.60;;;;;;;;;;4970921;28;20503;-65
2022/04/10 09:02:50;;;;;;;11.15;4.78;;;;;;;;;;4971946;28;20349;-65
2022/04/10 09:05:20;;;;;;;9.75;4.03;;;;;;;;;;4970930;28;20025;-65
2022/04/10 09:08:14;;;;;;;8.88;4.68;;;;;;;;;;4970820;28;20360;-65
2022/04/10 09:10:52;;;;;;;12.75;4.90;;;;;;;;;;4970012;28;20469;-65
2022/04/10 09:13:32;;;;;;;11.95;5.10;;;;;;;;;;4971372;28;20356;-65
2022/04/10 09:16:08;;;;;;;10.20;4.97;;;;;;;;;;4970593;28;20437;-65
2022/04/10 09:18:47;;;;;;;12.45;4.53;;;;;;;;;;4971062;28;20400;-65
2022/04/10 09:21:12;;;;;;;;;;;;;;;;;;4970923;28;20520;-65
2022/04/10 09:23:37;;;;;;;11.20;5.03;;;;;;;;;;4970622;28;20298;-65
2022/04/10 09:26:05;;;;;;;7.50;3.70;;;;;;;;;;4952614;28;20369;-65
2022/04/10 09:28:46;;;;;;;10.68;4.20;;;;;;;;;;4970554;28;20341;-65
2022/04/10 09:31:25;;;;;;;13.77;3.97;;;;;;;;;;4970115;28;20429;-65
2022/04/10 09:33:51;;;;;;;8.10;3.95;;;;;;;;;;4970509;28;20455;-65
2022/04/10 09:36:42;;;;;;;10.52;4.65;;;;;;;;;;4970355;28;20400;-65
2022/04/10 09:39:14;;;;;;;7.55;3.40;;;;;;;;;;4970127;28;20052;-65
2022/04/10 09:41:42;;;;;;;8.57;3.60;;;;;;;;;;4970746;28;20441;-65
2022/04/10 09:44:21;;;;;;;9.05;3.75;;;;;;;;;;4969869;28;20510;-64
2022/04/10 09:47:01;;;;;;;11.23;3.50;;;;;;;;;;4969726;28;20091;-65
2022/04/10 09:49:33;;;;;;;9.05;3.83;;;;;;;;;;4970866;28;20400;-65
2022/04/10 09:52:09;;;;;;;10.00;4.10;;;;;;;;;;4969809;28;20425;-67
2022/04/10 09:54:35;;;;;;;12.30;4.35;;;;;;;;;;4971235;28;20352;-65
2022/04/10 09:57:03;;;;;;;10.75;4.38;;;;;;;;;;4969550;28;20423;-65
2022/04/10 09:59:32;;;;;;;7.40;3.38;;;;;;;;;;4970022;28;20483;-65
2022/04/10 10:01:58;;;;;;;9.05;3.45;;;;;;;;;;4951911;28;20436;-65
2022/04/10 10:04:23;;;;;;;9.68;3.95;;;;;;;;;;4969546;28;20356;-65
2022/04/10 10:06:49;;;;;;;6.88;3.58;;;;;;;;;;4969451;28;20436;-65
2022/04/10 10:09:14;;;;;;;8.75;3.65;;;;;;;;;;4953176;28;20502;-64
2022/04/10 10:11:40;;;;;;;11.23;3.72;;;;;;;;;;4951976;28;20379;-64
2022/04/10 10:14:06;;;;;;;9.30;4.00;;;;;;;;;;4951638;28;20464;-65
2022/04/10 10:16:31;;;;;;;8.07;3.78;;;;;;;;;;4969577;28;20508;-64
2022/04/10 10:18:59;;;;;;;11.80;3.83;;;;;;;;;;4969171;28;20505;-66
2022/04/10 10:21:24;;;;;;;9.73;3.85;;;;;;;;;;4952157;28;20484;-65
2022/04/10 10:23:51;;;;;;;9.95;3.85;;;;;;;;;;4968765;28;20441;-65
2022/04/10 10:26:41;;;;;;;8.93;3.80;;;;;;;;;;4951559;28;20060;-65
2022/04/10 10:29:19;;;;;;;8.32;3.75;;;;;;;;;;4951528;28;20033;-65
2022/04/10 10:32:13;;;;;;;5.78;2.63;;;;;;;;;;4951711;28;20037;-64
2022/04/10 10:34:41;;;;;;;7.20;3.83;;;;;;;;;;4952008;28;20145;-65
2022/04/10 10:37:07;;;;;;;8.80;3.17;;;;;;;;;;4969385;28;20345;-65
2022/04/10 10:39:44;;;;;;;7.35;3.47;;;;;;;;;;4951285;28;20029;-65
2022/04/10 10:42:11;;;;;;;11.05;3.20;;;;;;;;;;4969268;28;20384;-64
2022/04/10 10:44:41;;;;;;;9.07;3.13;;;;;;;;;;4970604;28;20417;-65
2022/04/10 10:47:16;;;;;;;6.55;3.35;;;;;;;;;;4968551;28;20525;-65
2022/04/10 10:49:46;;;;;;;7.68;2.75;;;;;;;;;;4969983;28;20567;-65
2022/04/10 10:52:13;;;;;;;9.25;3.13;;;;;;;;;;4969578;28;20453;-64
2022/04/10 10:54:50;;;;;;;8.13;3.10;;;;;;;;;;4968822;28;20321;-64
2022/04/10 10:57:29;;;;;;;6.68;3.15;;;;;;;;;;4969132;28;20336;-64
2022/04/10 11:00:04;;;;;;;;;;;;;;;;;;4969324;28;20368;-64
2022/04/10 11:02:33;;;;;;;10.70;3.33;;;;;;;;;;4969179;28;20352;-64
2022/04/10 11:04:58;;;;;;;7.18;3.13;;;;;;;;;;4969193;28;20362;-65
2022/04/10 11:07:25;;;;;;;7.03;3.17;;;;;;;;;;4969878;28;20328;-64
2022/04/10 11:10:08;;;;;;;9.57;4.35;;;;;;;;;;4968680;28;20344;-64
2022/04/10 11:12:50;;;;;;;10.93;4.30;;;;;;;;;;4969342;28;20473;-65
2022/04/10 11:15:30;;;;;;;6.40;2.92;;;;;;;;;;4969387;28;20460;-64
2022/04/10 11:17:55;;;;;;;8.15;3.15;;;;;;;;;;4968784;28;20037;-65
2022/04/10 11:20:22;;;;;;;7.28;3.53;;;;;;;;;;4968673;28;20428;-64
2022/04/10 11:22:53;;;;;;;8.98;3.17;;;;;;;;;;4968845;28;20117;-65
2022/04/10 11:25:24;;;;;;;6.78;3.25;;;;;;;;;;4968645;28;20469;-65
2022/04/10 11:28:00;;;;;;;14.05;3.78;;;;;;;;;;4951432;28;20342;-64
2022/04/10 11:30:33;;;;;;;6.13;3.20;;;;;;;;;;4968417;28;20503;-64
2022/04/10 11:32:59;;;;;;;7.13;3.05;;;;;;;;;;4951333;28;20418;-65
2022/04/10 11:35:25;;;;;;;10.90;3.85;;;;;;;;;;4973260;28;20368;-64
2022/04/10 11:37:53;;;;;;;8.77;3.05;;;;;;;;;;4974058;28;20356;-65
2022/04/10 11:40:20;;;;;;;7.22;2.85;;;;;;;;;;4972318;28;20460;-65
2022/04/10 11:42:46;;;;;;;9.23;3.38;;;;;;;;;;4972234;28;20424;-64
2022/04/10 11:45:11;;;;;;;11.25;3.47;;;;;;;;;;4954482;28;20060;-64
2022/04/10 11:47:39;;;;;;;5.65;2.90;;;;;;;;;;4972330;28;20529;-65
2022/04/10 11:50:06;;;;;;;9.27;3.85;;;;;;;;;;4972307;28;20387;-65
2022/04/10 11:52:31;;;;;;;6.80;2.75;;;;;;;;;;4954385;28;20160;-64
2022/04/10 11:54:57;;;;;;;7.95;3.25;;;;;;;;;;4972283;28;20180;-65
2022/04/10 11:57:23;;;;;;;10.85;3.30;;;;;;;;;;4972085;28;20495;-65
2022/04/10 11:59:49;;;;;;;8.20;3.05;;;;;;;;;;4972605;28;20475;-64
2022/04/10 12:02:14;;;;;;;8.30;3.22;;;;;;;;;;4972744;28;20456;-64
2022/04/10 12:04:41;;;;;;;9.60;3.13;;;;;;;;;;4972081;28;20320;-65
2022/04/10 12:07:17;;;;;;;7.22;3.80;;;;;;;;;;4972754;28;20449;-65
2022/04/10 12:09:44;;;;;;;5.93;3.00;;;;;;;;;;4972167;28;20164;-65
2022/04/10 12:12:10;;;;;;;9.68;3.38;;;;;;;;;;4972375;28;20309;-64
2022/04/10 12:14:35;;;;;;;5.57;2.53;;;;;;;;;;4972126;28;20361;-64
2022/04/10 12:17:01;;;;;;;8.40;3.25;;;;;;;;;;4971975;28;20491;-64
2022/04/10 12:19:34;;;;;;;6.13;2.83;;;;;;;;;;4971472;28;20088;-64
2022/04/10 12:22:01;;;;;;;8.23;2.92;;;;;;;;;;4972585;28;20380;-64
2022/04/10 12:24:27;;;;;;;6.25;2.72;;;;;;;;;;4972678;28;20336;-64
2022/04/10 12:26:52;;;;;;;6.13;2.88;;;;;;;;;;4971883;28;20060;-64
2022/04/10 12:29:18;;;;;;;7.70;2.63;;;;;;;;;;4971752;28;20371;-64
2022/04/10 12:31:45;;;;;;;4.97;2.40;;;;;;;;;;4971403;28;20321;-64
2022/04/10 12:34:13;;;;;;;7.72;3.15;;;;;;;;;;4953826;28;20341;-64
2022/04/10 12:36:52;;;;;;;11.02;2.78;;;;;;;;;;4953753;28;20347;-64
2022/04/10 12:39:28;;;;;;;7.03;2.80;;;;;;;;;;4971460;28;20535;-64
2022/04/10 12:42:01;;;;;;;6.63;2.80;;;;;;;;;;4970321;28;20476;-64
2022/04/10 12:44:26;;;;;;;9.57;2.80;;;;;;;;;;4970724;28;20476;-64
2022/04/10 12:46:52;;;;;;;6.53;2.40;;;;;;;;;;4970693;28;20455;-64
2022/04/10 12:49:18;;;;;;;6.05;3.00;;;;;;;;;;4971360;28;20038;-64
2022/04/10 12:51:59;;;;;;;9.70;2.88;;;;;;;;;;4970992;28;20436;-64
2022/04/10 12:54:46;;;;;;;6.30;2.65;;;;;;;;;;4971128;28;20052;-64
2022/04/10 12:57:25;;;;;;;6.15;2.92;;;;;;;;;;4970889;28;20455;-65
2022/04/10 12:59:50;;;;;;;6.43;3.73;;;;;;;;;;4970859;28;20048;-64
2022/04/10 13:02:24;;;;;;;10.52;3.70;;;;;;;;;;4970912;28;20475;-64
2022/04/10 13:05:10;;;;;;;10.65;3.72;;;;;;;;;;4970941;28;20432;-63
2022/04/10 13:07:35;;;;;;;10.48;3.97;;;;;;;;;;4970757;28;20345;-63
2022/04/10 13:10:00;;;;;;;7.82;3.33;;;;;;;;;;4971125;28;20410;-64
2022/04/10 13:12:27;;;;;;;7.90;3.38;;;;;;;;;;4970628;28;20120;-64
2022/04/10 13:14:53;;;;;;;10.05;3.97;;;;;;;;;;4970685;28;20400;-63
2022/04/10 13:17:18;;;;;;;9.85;5.13;;;;;;;;;;4970244;28;20313;-64
2022/04/10 13:19:45;;;;;;;9.93;3.78;;;;;;;;;;4970595;28;20068;-64
2022/04/10 13:22:10;;;;;;;7.53;3.72;;;;;;;;;;4971033;28;20424;-64
2022/04/10 13:24:35;;;;;;;9.27;4.07;;;;;;;;;;4970564;28;20444;-64
2022/04/10 13:27:01;;;;;;;10.05;4.43;;;;;;;;;;4972372;28;20429;-63
2022/04/10 13:29:26;;;;;;;11.20;4.43;;;;;;;;;;4970696;28;20445;-64
2022/04/10 13:31:51;;;;;;;6.38;3.25;;;;;;;;;;4970560;28;20318;-63
2022/04/10 13:34:17;;;;;;;9.98;3.83;;;;;;;;;;4971239;28;20037;-63
2022/04/10 13:36:43;;;;;;;10.32;3.58;;;;;;;;;;4970033;28;20425;-64
2022/04/10 13:39:09;;;;;;;6.75;3.42;;;;;;;;;;4971953;28;20345;-63
2022/04/10 13:41:35;;;;;;;15.55;3.75;;;;;;;;;;4969319;28;20404;-63
2022/04/10 13:44:01;;;;;;;4.93;2.72;;;;;;;;;;4970605;28;20060;-63
2022/04/10 13:46:27;;;;;;;9.63;4.07;;;;;;;;;;4969689;28;20466;-63
2022/04/10 13:48:52;;;;;;;6.50;3.40;;;;;;;;;;4970978;28;20341;-64
2022/04/10 13:51:18;;;;;;;13.13;4.82;;;;;;;;;;4970058;28;20026;-63
2022/04/10 13:53:43;;;;;;;10.43;4.10;;;;;;;;;;4970038;28;20436;-64
2022/04/10 13:56:09;;;;;;;8.90;3.72;;;;;;;;;;4969731;28;20356;-63
2022/04/10 13:58:35;;;;;;;10.30;4.70;;;;;;;;;;4969948;28;20345;-64
2022/04/10 14:01:00;;;;;;;5.47;3.25;;;;;;;;;;4969612;28;20330;-63
2022/04/10 14:03:25;;;;;;;11.30;4.32;;;;;;;;;;4971005;28;20464;-63
2022/04/10 14:05:51;;;;;;;10.02;4.25;;;;;;;;;;4970281;28;20356;-63
2022/04/10 14:08:16;;;;;;;9.68;4.10;;;;;;;;;;4969842;28;20376;-64
2022/04/10 14:10:42;;;;;;;12.00;4.40;;;;;;;;;;4970548;28;20295;-63
2022/04/10 14:13:08;;;;;;;5.57;3.25;;;;;;;;;;4969512;28;20383;-64
2022/04/10 14:15:34;;;;;;;10.05;4.10;;;;;;;;;;4970371;28;20460;-64
2022/04/10 14:17:59;;;;;;;8.00;3.15;;;;;;;;;;4969898;28;20363;-64
2022/04/10 14:20:24;;;;;;;10.93;4.07;;;;;;;;;;4969580;28;20021;-63
2022/04/10 14:22:50;;;;;;;7.80;3.72;;;;;;;;;;4970384;28;20111;-63
2022/04/10 14:25:15;;;;;;;6.63;3.63;;;;;;;;;;4969539;28;20450;-63
2022/04/10 14:27:40;;;;;;;9.70;3.92;;;;;;;;;;4969471;28;20336;-64
2022/04/10 14:30:06;;;;;;;7.40;3.97;;;;;;;;;;4969317;28;20504;-64
2022/04/10 14:32:32;;;;;;;8.82;3.75;;;;;;;;;;4969982;28;20423;-64
2022/04/10 14:34:58;;;;;;;6.78;3.28;;;;;;;;;;4969286;28;20539;-63
2022/04/10 14:37:23;;;;;;;9.95;3.70;;;;;;;;;;4969136;28;20429;-63